Time;durP1;ratioP1;P1;durP2;ratioP2;P2;SDS_P1;SDS_P2;PMS_P1;PMS_P2;Temp;Humidity;BMP_temperature;BMP_pressure;BME280_temperature;BME280_humidity;BME280_pressure;Samples;Min_cycle;Max_cycle;Signal;HPM_P1;HPM_P2
2023/01/22 00:02:03;;;;;;;1.50;1.40;;;;;;;;;;5070554;28;20216;-83
2023/01/22 00:04:30;;;;;;;1.47;1.37;;;;;;;;;;5059199;28;20239;-82
2023/01/22 00:06:57;;;;;;;1.33;1.20;;;;;;;;;;5076922;28;20208;-83
2023/01/22 00:09:24;;;;;;;1.50;1.37;;;;;;;;;;5077753;28;20200;-83
2023/01/22 00:11:52;;;;;;;1.40;1.30;;;;;;;;;;5064380;28;20761;-83
2023/01/22 00:14:22;;;;;;;1.03;1.00;;;;;;;;;;5069414;28;20216;-83
2023/01/22 00:16:49;;;;;;;1.13;1.03;;;;;;;;;;5057795;28;20665;-83
2023/01/22 00:19:15;;;;;;;4.67;3.93;;;;;;;;;;5058072;28;20213;-83
2023/01/22 00:21:42;;;;;;;3.00;2.10;;;;;;;;;;5073339;28;20733;-82
2023/01/22 00:24:09;;;;;;;1.80;1.60;;;;;;;;;;5068652;28;20251;-83
2023/01/22 00:26:36;;;;;;;1.97;1.77;;;;;;;;;;5057486;28;20208;-83
2023/01/22 00:29:04;;;;;;;3.43;2.10;;;;;;;;;;5058020;28;20205;-82
2023/01/22 00:31:31;;;;;;;1.40;0.83;;;;;;;;;;5074206;28;20270;-83
2023/01/22 00:33:58;;;;;;;6.37;5.77;;;;;;;;;;5077565;28;20205;-83
2023/01/22 00:36:24;;;;;;;2.60;2.27;;;;;;;;;;5060474;28;20205;-83
2023/01/22 00:38:51;;;;;;;2.20;1.47;;;;;;;;;;5067781;28;20216;-82
2023/01/22 00:41:19;;;;;;;1.77;1.60;;;;;;;;;;5073645;28;20643;-83
2023/01/22 00:43:46;;;;;;;1.40;1.30;;;;;;;;;;5057916;28;20722;-82
2023/01/22 00:46:15;;;;;;;2.33;1.50;;;;;;;;;;5070868;28;20218;-82
2023/01/22 00:48:44;;;;;;;3.10;1.47;;;;;;;;;;5057692;28;20198;-82
2023/01/22 00:51:13;;;;;;;1.50;1.10;;;;;;;;;;5070776;28;20212;-82
2023/01/22 00:53:42;;;;;;;1.90;1.70;;;;;;;;;;5058413;28;20685;-82
2023/01/22 00:56:10;;;;;;;1.27;1.20;;;;;;;;;;5062781;28;20284;-82
2023/01/22 00:58:36;;;;;;;2.00;1.80;;;;;;;;;;5064878;28;20237;-83
2023/01/22 01:01:04;;;;;;;1.63;1.30;;;;;;;;;;5076964;28;20209;-83
2023/01/22 01:03:33;;;;;;;2.37;2.17;;;;;;;;;;5077323;28;20216;-82
2023/01/22 01:06:01;;;;;;;3.80;1.90;;;;;;;;;;5050994;28;20216;-83
2023/01/22 01:08:29;;;;;;;1.63;1.53;;;;;;;;;;5064170;28;20202;-83
2023/01/22 01:10:56;;;;;;;1.40;1.30;;;;;;;;;;5064838;28;20674;-83
2023/01/22 01:13:23;;;;;;;3.47;2.63;;;;;;;;;;5077504;28;20262;-83
2023/01/22 01:15:50;;;;;;;2.00;1.50;;;;;;;;;;5070421;28;20631;-84
2023/01/22 01:18:17;;;;;;;1.40;1.30;;;;;;;;;;5053947;28;20206;-83
2023/01/22 01:20:45;;;;;;;2.60;2.40;;;;;;;;;;5061729;28;20593;-81
2023/01/22 01:23:12;;;;;;;5.40;3.13;;;;;;;;;;5059196;28;20699;-83
2023/01/22 01:25:42;;;;;;;4.07;2.10;;;;;;;;;;5053862;28;20220;-83
2023/01/22 01:28:09;;;;;;;3.00;1.93;;;;;;;;;;5069351;28;20278;-83
2023/01/22 01:30:35;;;;;;;4.73;2.37;;;;;;;;;;5064587;28;20221;-82
2023/01/22 01:33:02;;;;;;;2.80;1.63;;;;;;;;;;5069510;28;20212;-83
2023/01/22 01:35:29;;;;;;;3.07;1.90;;;;;;;;;;5064728;28;20202;-83
2023/01/22 01:37:57;;;;;;;2.83;2.50;;;;;;;;;;5056183;28;20210;-83
2023/01/22 01:40:24;;;;;;;4.27;2.53;;;;;;;;;;5064276;28;20681;-83
2023/01/22 01:42:51;;;;;;;7.20;5.77;;;;;;;;;;5067030;28;20589;-85
2023/01/22 01:45:26;;;;;;;2.77;2.47;;;;;;;;;;5063335;28;20649;-83
2023/01/22 01:47:57;;;;;;;3.07;1.87;;;;;;;;;;5055666;28;20236;-83
2023/01/22 01:50:26;;;;;;;2.13;1.93;;;;;;;;;;5065275;28;20193;-83
2023/01/22 01:52:52;;;;;;;2.33;2.07;;;;;;;;;;5073094;28;20758;-83
2023/01/22 01:55:25;;;;;;;3.07;2.20;;;;;;;;;;5061475;28;20197;-83
2023/01/22 01:57:52;;;;;;;2.30;2.10;;;;;;;;;;5040282;28;20202;-84
2023/01/22 02:00:20;;;;;;;1.97;1.87;;;;;;;;;;5053636;28;20279;-83
2023/01/22 02:02:48;;;;;;;2.93;2.50;;;;;;;;;;5053190;28;20198;-82
2023/01/22 02:05:19;;;;;;;2.30;2.10;;;;;;;;;;5053555;28;20233;-82
2023/01/22 02:07:46;;;;;;;2.30;1.87;;;;;;;;;;5065425;28;20201;-82
2023/01/22 02:10:13;;;;;;;3.00;2.07;;;;;;;;;;5066856;28;20205;-82
2023/01/22 02:12:41;;;;;;;4.83;2.23;;;;;;;;;;5053184;28;20214;-82
2023/01/22 02:15:09;;;;;;;8.70;6.27;;;;;;;;;;5053097;28;20202;-82
2023/01/22 02:17:36;;;;;;;9.17;6.37;;;;;;;;;;5053395;28;20205;-82
2023/01/22 02:20:02;;;;;;;4.40;4.00;;;;;;;;;;5068436;28;20266;-82
2023/01/22 02:22:32;;;;;;;3.80;2.77;;;;;;;;;;5063875;28;20267;-83
2023/01/22 02:24:59;;;;;;;2.73;2.40;;;;;;;;;;5052856;28;20664;-83
2023/01/22 02:27:26;;;;;;;2.90;2.60;;;;;;;;;;5062459;28;20209;-82
2023/01/22 02:29:53;;;;;;;3.07;2.50;;;;;;;;;;5054920;28;20206;-84
2023/01/22 02:32:20;;;;;;;21.40;19.10;;;;;;;;;;5053165;28;20209;-82
2023/01/22 02:34:47;;;;;;;6.93;4.63;;;;;;;;;;5056477;28;20205;-82
2023/01/22 02:37:14;;;;;;;5.17;4.10;;;;;;;;;;5062016;28;20210;-82
2023/01/22 02:39:42;;;;;;;6.73;5.47;;;;;;;;;;5065615;28;20202;-80
2023/01/22 02:42:09;;;;;;;12.67;9.00;;;;;;;;;;5052519;28;20214;-81
2023/01/22 02:44:36;;;;;;;16.63;11.00;;;;;;;;;;5052562;28;20233;-82
2023/01/22 02:47:03;;;;;;;5.77;5.10;;;;;;;;;;5052454;28;20742;-81
2023/01/22 02:49:29;;;;;;;6.40;3.30;;;;;;;;;;5065827;28;20217;-82
2023/01/22 02:51:56;;;;;;;7.00;5.77;;;;;;;;;;5052604;28;20579;-82
2023/01/22 02:54:23;;;;;;;3.37;2.87;;;;;;;;;;5056505;28;20615;-83
2023/01/22 02:56:51;;;;;;;3.37;2.50;;;;;;;;;;5061796;28;20210;-83
2023/01/22 02:59:18;;;;;;;4.13;2.80;;;;;;;;;;5056717;28;20236;-83
2023/01/22 03:01:44;;;;;;;3.17;2.57;;;;;;;;;;5060967;28;20271;-82
2023/01/22 03:04:11;;;;;;;3.67;2.87;;;;;;;;;;5070162;28;20290;-82
2023/01/22 03:06:39;;;;;;;2.40;2.20;;;;;;;;;;5072211;28;20206;-83
2023/01/22 03:09:06;;;;;;;1.60;1.50;;;;;;;;;;5066977;28;20206;-83
2023/01/22 03:11:35;;;;;;;4.10;2.40;;;;;;;;;;5052165;28;20205;-83
2023/01/22 03:22:15;;;;;;;4.17;2.20;;;;;;;;;;5038887;28;20302;-83
2023/01/22 03:24:42;;;;;;;3.20;2.50;;;;;;;;;;5065183;28;20225;-83
2023/01/22 03:27:09;;;;;;;3.77;2.63;;;;;;;;;;5059441;28;20590;-83
2023/01/22 03:29:38;;;;;;;3.93;2.77;;;;;;;;;;5057575;28;20201;-84
2023/01/22 03:32:05;;;;;;;3.57;2.20;;;;;;;;;;5059800;28;20288;-83
2023/01/22 03:34:32;;;;;;;3.23;2.10;;;;;;;;;;5070116;28;20212;-83
2023/01/22 03:36:58;;;;;;;2.87;2.67;;;;;;;;;;5052043;28;20255;-83
2023/01/22 03:39:26;;;;;;;2.70;2.20;;;;;;;;;;5053735;28;20209;-83
2023/01/22 03:41:52;;;;;;;5.37;2.63;;;;;;;;;;5062334;28;20202;-83
2023/01/22 03:44:19;;;;;;;2.60;2.33;;;;;;;;;;5051391;28;20283;-83
2023/01/22 03:46:47;;;;;;;3.00;2.23;;;;;;;;;;5051830;28;20271;-82
2023/01/22 03:49:15;;;;;;;3.40;2.20;;;;;;;;;;5051157;28;20209;-83
2023/01/22 03:51:42;;;;;;;2.30;2.10;;;;;;;;;;5060614;28;20209;-82
2023/01/22 03:54:10;;;;;;;11.27;9.73;;;;;;;;;;5055402;28;20857;-82
2023/01/22 03:56:37;;;;;;;16.37;12.83;;;;;;;;;;5061051;28;20266;-84
2023/01/22 03:59:04;;;;;;;6.43;5.37;;;;;;;;;;5058195;28;20298;-83
2023/01/22 04:01:31;;;;;;;4.90;4.37;;;;;;;;;;5062096;28;20233;-83
2023/01/22 04:03:59;;;;;;;2.47;2.27;;;;;;;;;;5067772;28;20213;-84
2023/01/22 04:06:27;;;;;;;3.63;3.33;;;;;;;;;;5071067;28;20205;-82
2023/01/22 04:08:54;;;;;;;5.70;3.87;;;;;;;;;;5057898;28;20260;-83
2023/01/22 04:11:22;;;;;;;11.07;8.60;;;;;;;;;;5060690;28;20210;-82
2023/01/22 04:13:48;;;;;;;14.33;12.93;;;;;;;;;;5054880;28;20746;-84
2023/01/22 04:16:16;;;;;;;24.80;20.23;;;;;;;;;;5060619;28;20209;-83
2023/01/22 04:18:43;;;;;;;9.53;5.93;;;;;;;;;;5051031;28;20693;-84
2023/01/22 04:21:11;;;;;;;4.43;2.73;;;;;;;;;;5051529;28;20621;-84
2023/01/22 04:23:38;;;;;;;2.70;2.20;;;;;;;;;;5051033;28;20676;-85
2023/01/22 04:26:05;;;;;;;9.23;7.27;;;;;;;;;;5051118;28;20605;-84
2023/01/22 04:28:32;;;;;;;8.77;7.00;;;;;;;;;;5050711;28;20205;-85
2023/01/22 04:30:59;;;;;;;13.10;9.30;;;;;;;;;;5051218;28;20202;-85
2023/01/22 04:33:25;;;;;;;11.33;8.03;;;;;;;;;;5051007;28;20668;-83
2023/01/22 04:35:53;;;;;;;11.20;8.03;;;;;;;;;;5062312;28;20209;-84
2023/01/22 04:38:21;;;;;;;13.43;10.53;;;;;;;;;;5070868;28;20201;-84
2023/01/22 04:40:48;;;;;;;12.07;10.33;;;;;;;;;;5058669;28;20275;-85
2023/01/22 04:43:15;;;;;;;17.83;14.20;;;;;;;;;;5069208;28;20205;-84
2023/01/22 04:45:42;;;;;;;6.83;5.83;;;;;;;;;;5058551;28;20233;-84
2023/01/22 04:48:09;;;;;;;4.63;3.90;;;;;;;;;;5050795;28;20948;-84
2023/01/22 04:50:36;;;;;;;6.23;5.30;;;;;;;;;;5051045;28;20297;-83
2023/01/22 04:53:03;;;;;;;3.87;3.20;;;;;;;;;;5053159;28;20206;-83
2023/01/22 04:55:32;;;;;;;3.47;2.37;;;;;;;;;;5067859;28;20236;-84
2023/01/22 04:57:59;;;;;;;3.07;2.80;;;;;;;;;;5074620;28;20216;-84
2023/01/22 05:00:27;;;;;;;6.60;3.67;;;;;;;;;;5060490;28;20209;-84
2023/01/22 05:02:56;;;;;;;5.60;5.10;;;;;;;;;;5054403;28;20214;-84
2023/01/22 05:05:23;;;;;;;6.83;5.63;;;;;;;;;;5055968;28;20292;-83
2023/01/22 05:07:50;;;;;;;12.50;7.83;;;;;;;;;;5065696;28;20213;-84
2023/01/22 05:10:17;;;;;;;11.10;8.37;;;;;;;;;;5069989;28;20232;-84
2023/01/22 05:12:45;;;;;;;7.77;5.70;;;;;;;;;;5065302;28;20259;-84
2023/01/22 05:15:12;;;;;;;10.53;8.80;;;;;;;;;;5056968;28;20220;-84
2023/01/22 05:17:38;;;;;;;10.77;9.13;;;;;;;;;;5064481;28;20738;-83
2023/01/22 05:20:06;;;;;;;6.83;6.13;;;;;;;;;;5054077;28;20220;-83
2023/01/22 05:22:33;;;;;;;10.43;7.50;;;;;;;;;;5064014;28;20729;-83
2023/01/22 05:24:59;;;;;;;8.83;7.97;;;;;;;;;;5061158;28;20702;-83
2023/01/22 05:27:26;;;;;;;10.93;7.73;;;;;;;;;;5073940;28;20729;-84
2023/01/22 05:29:55;;;;;;;7.13;6.40;;;;;;;;;;5056592;28;20649;-84
2023/01/22 05:32:21;;;;;;;5.27;3.90;;;;;;;;;;5053768;28;20750;-83
2023/01/22 05:34:48;;;;;;;7.87;4.50;;;;;;;;;;5053823;28;20209;-83
2023/01/22 05:37:15;;;;;;;3.23;2.67;;;;;;;;;;5054001;28;20217;-84
2023/01/22 05:39:42;;;;;;;8.60;7.37;;;;;;;;;;5059041;28;20197;-83
2023/01/22 05:42:14;;;;;;;8.30;7.53;;;;;;;;;;5073139;28;20201;-83
2023/01/22 05:44:41;;;;;;;8.50;6.77;;;;;;;;;;5067626;28;20257;-83
2023/01/22 05:47:09;;;;;;;5.90;5.30;;;;;;;;;;5053747;28;20198;-84
2023/01/22 05:49:36;;;;;;;6.53;5.37;;;;;;;;;;5059880;28;20765;-84
2023/01/22 05:52:02;;;;;;;7.63;5.87;;;;;;;;;;5059969;28;20209;-84
2023/01/22 05:54:29;;;;;;;5.17;4.77;;;;;;;;;;5065258;28;20209;-84
2023/01/22 05:56:56;;;;;;;11.43;8.33;;;;;;;;;;5053733;28;20210;-83
2023/01/22 05:59:23;;;;;;;8.73;7.87;;;;;;;;;;5059127;28;20251;-83
2023/01/22 06:01:49;;;;;;;9.23;8.33;;;;;;;;;;5062107;28;20673;-83
2023/01/22 06:04:18;;;;;;;11.53;10.33;;;;;;;;;;5060833;28;20564;-84
2023/01/22 06:06:45;;;;;;;4.63;4.23;;;;;;;;;;5051624;28;20598;-83
2023/01/22 06:09:13;;;;;;;6.73;5.90;;;;;;;;;;5051331;28;20205;-84
2023/01/22 06:11:39;;;;;;;7.53;6.73;;;;;;;;;;5033879;28;20214;-84
2023/01/22 06:14:07;;;;;;;5.27;3.43;;;;;;;;;;5062935;28;20668;-83
2023/01/22 06:16:35;;;;;;;3.60;1.73;;;;;;;;;;5068877;28;20197;-84
2023/01/22 06:19:01;;;;;;;1.97;1.73;;;;;;;;;;5068328;28;20206;-84
2023/01/22 06:21:29;;;;;;;5.73;5.10;;;;;;;;;;5064224;28;20251;-81
2023/01/22 06:23:57;;;;;;;3.27;2.97;;;;;;;;;;5066001;28;20201;-81
2023/01/22 06:26:24;;;;;;;1.63;1.53;;;;;;;;;;5058341;28;20229;-82
2023/01/22 06:28:54;;;;;;;5.33;4.90;;;;;;;;;;5047566;28;20198;-82
2023/01/22 06:31:21;;;;;;;8.60;7.07;;;;;;;;;;5059491;28;20663;-81
2023/01/22 06:33:47;;;;;;;10.90;9.90;;;;;;;;;;5057445;28;20209;-80
2023/01/22 06:36:14;;;;;;;4.20;3.83;;;;;;;;;;5052217;28;20202;-80
2023/01/22 06:38:42;;;;;;;4.50;4.00;;;;;;;;;;5052478;28;20220;-79
2023/01/22 06:41:09;;;;;;;4.17;3.87;;;;;;;;;;5051536;28;20202;-80
2023/01/22 06:43:36;;;;;;;6.03;5.47;;;;;;;;;;5053782;28;20202;-80
2023/01/22 06:46:04;;;;;;;11.00;10.00;;;;;;;;;;5063455;28;20257;-86
2023/01/22 06:48:31;;;;;;;5.70;5.20;;;;;;;;;;5084524;28;20210;-84
2023/01/22 06:50:58;;;;;;;6.60;6.00;;;;;;;;;;5061651;28;20204;-83
2023/01/22 06:53:26;;;;;;;8.80;8.10;;;;;;;;;;5064201;28;20241;-85
2023/01/22 06:55:54;;;;;;;7.90;7.20;;;;;;;;;;5055256;28;20271;-84
2023/01/22 06:58:21;;;;;;;3.57;3.27;;;;;;;;;;5062234;28;20287;-85
2023/01/22 07:00:48;;;;;;;6.70;5.30;;;;;;;;;;5058457;28;20209;-84
2023/01/22 07:03:15;;;;;;;3.60;2.70;;;;;;;;;;5070764;28;20267;-85
2023/01/22 07:05:42;;;;;;;10.13;7.20;;;;;;;;;;5046269;28;20238;-84
2023/01/22 07:08:10;;;;;;;37.40;26.87;;;;;;;;;;5042874;28;20697;-84
2023/01/22 07:10:37;;;;;;;19.87;15.77;;;;;;;;;;5051624;28;20681;-84
2023/01/22 07:13:07;;;;;;;20.63;15.27;;;;;;;;;;5051320;28;20206;-86
2023/01/22 07:15:34;;;;;;;46.40;27.60;;;;;;;;;;5049191;28;20202;-84
2023/01/22 07:18:02;;;;;;;23.67;15.87;;;;;;;;;;5050422;28;20201;-88
2023/01/22 07:20:28;;;;;;;9.90;7.73;;;;;;;;;;5056065;28;20213;-84
2023/01/22 07:22:58;;;;;;;8.97;7.47;;;;;;;;;;5042827;28;20562;-84
2023/01/22 07:25:25;;;;;;;8.47;6.00;;;;;;;;;;5051066;28;20221;-84
2023/01/22 07:27:52;;;;;;;4.80;4.40;;;;;;;;;;5040994;28;20205;-91
2023/01/22 07:30:21;;;;;;;49.87;45.20;;;;;;;;;;5067797;28;20297;-84
2023/01/22 07:32:48;;;;;;;50.80;45.77;;;;;;;;;;5069143;28;20221;-84
2023/01/22 07:35:15;;;;;;;28.50;26.07;;;;;;;;;;5052158;28;20225;-85
2023/01/22 07:37:43;;;;;;;30.87;23.27;;;;;;;;;;5055687;28;20208;-83
2023/01/22 07:40:11;;;;;;;61.87;47.87;;;;;;;;;;5058837;28;20264;-84
2023/01/22 07:42:38;;;;;;;60.93;46.37;;;;;;;;;;5057380;28;20201;-83
2023/01/22 07:45:07;;;;;;;33.73;28.10;;;;;;;;;;5055108;28;20686;-83
2023/01/22 07:47:35;;;;;;;16.60;14.47;;;;;;;;;;5052114;28;20664;-85
2023/01/22 07:50:05;;;;;;;14.77;13.27;;;;;;;;;;5054875;28;20198;-83
2023/01/22 07:52:32;;;;;;;11.50;9.90;;;;;;;;;;5053202;28;20278;-82
2023/01/22 07:54:59;;;;;;;12.00;9.80;;;;;;;;;;5050910;28;20216;-81
2023/01/22 07:57:26;;;;;;;11.00;9.80;;;;;;;;;;5050918;28;20263;-81
2023/01/22 07:59:53;;;;;;;22.77;16.37;;;;;;;;;;5049061;28;20269;-82
2023/01/22 08:02:20;;;;;;;28.50;18.43;;;;;;;;;;5049734;28;20633;-80
2023/01/22 08:04:48;;;;;;;15.83;11.87;;;;;;;;;;5060209;28;20300;-81
2023/01/22 08:07:16;;;;;;;10.90;9.90;;;;;;;;;;5057377;28;20231;-81
2023/01/22 08:09:43;;;;;;;17.77;14.60;;;;;;;;;;5030853;28;20289;-82
2023/01/22 08:12:10;;;;;;;16.93;15.27;;;;;;;;;;5048052;28;20578;-81
2023/01/22 08:14:37;;;;;;;15.90;14.40;;;;;;;;;;5062413;28;20213;-81
2023/01/22 08:17:04;;;;;;;34.27;27.43;;;;;;;;;;5031729;28;20213;-80
2023/01/22 08:19:31;;;;;;;96.60;62.27;;;;;;;;;;5053466;28;20205;-81
2023/01/22 08:22:00;;;;;;;17.93;15.33;;;;;;;;;;5066086;28;20607;-81
2023/01/22 08:24:26;;;;;;;18.27;16.37;;;;;;;;;;5062745;28;20197;-81
2023/01/22 08:26:55;;;;;;;58.77;52.63;;;;;;;;;;5066989;28;20715;-81
2023/01/22 08:29:23;;;;;;;23.87;21.73;;;;;;;;;;5067427;28;20209;-81
2023/01/22 08:31:53;;;;;;;25.97;20.60;;;;;;;;;;5054952;28;20280;-81
2023/01/22 08:34:20;;;;;;;23.73;20.17;;;;;;;;;;5054845;28;20198;-81
2023/01/22 08:36:48;;;;;;;29.23;22.63;;;;;;;;;;5041433;28;20197;-81
2023/01/22 08:39:16;;;;;;;45.30;39.83;;;;;;;;;;5055026;28;20277;-82
2023/01/22 08:41:43;;;;;;;30.70;25.23;;;;;;;;;;5041659;28;20202;-81
2023/01/22 08:44:12;;;;;;;12.97;11.57;;;;;;;;;;5067423;28;20219;-82
2023/01/22 08:46:40;;;;;;;30.30;23.60;;;;;;;;;;5048596;28;20327;-81
2023/01/22 08:49:07;;;;;;;25.27;21.30;;;;;;;;;;5073357;28;20243;-82
2023/01/22 08:51:34;;;;;;;24.60;22.10;;;;;;;;;;5066639;28;20212;-82
2023/01/22 08:54:01;;;;;;;22.27;19.83;;;;;;;;;;5054702;28;20208;-81
2023/01/22 08:56:32;;;;;;;12.10;10.90;;;;;;;;;;5056032;28;20657;-82
2023/01/22 08:59:05;;;;;;;8.20;7.60;;;;;;;;;;5060980;28;20231;-81
2023/01/22 09:01:32;;;;;;;7.23;6.60;;;;;;;;;;5065815;28;20210;-83
2023/01/22 09:03:59;;;;;;;4.90;4.60;;;;;;;;;;5066094;28;20203;-82
2023/01/22 09:06:27;;;;;;;6.73;6.17;;;;;;;;;;5061639;28;20798;-81
2023/01/22 09:08:55;;;;;;;4.63;4.13;;;;;;;;;;5065463;28;20210;-81
2023/01/22 09:11:22;;;;;;;3.87;3.57;;;;;;;;;;5072761;28;20247;-81
2023/01/22 09:13:53;;;;;;;4.13;3.73;;;;;;;;;;5057625;28;20198;-81
2023/01/22 09:16:21;;;;;;;4.40;3.77;;;;;;;;;;5059563;28;20220;-82
2023/01/22 09:18:48;;;;;;;4.47;4.07;;;;;;;;;;5074194;28;20201;-82
2023/01/22 09:21:15;;;;;;;19.53;17.63;;;;;;;;;;5042546;28;20266;-82
2023/01/22 09:23:42;;;;;;;10.10;9.00;;;;;;;;;;5060155;28;20213;-83
2023/01/22 09:26:09;;;;;;;26.60;24.00;;;;;;;;;;5066482;28;20244;-82
2023/01/22 09:28:36;;;;;;;16.20;14.70;;;;;;;;;;5082507;28;20691;-83
2023/01/22 09:31:05;;;;;;;6.57;5.57;;;;;;;;;;5036426;28;20766;-83
2023/01/22 09:33:32;;;;;;;15.53;14.10;;;;;;;;;;5054738;28;20214;-83
2023/01/22 09:36:07;;;;;;;16.47;14.70;;;;;;;;;;5064192;28;20292;-82
2023/01/22 09:38:34;;;;;;;9.77;8.90;;;;;;;;;;5053506;28;20303;-82
2023/01/22 09:41:05;;;;;;;17.40;15.50;;;;;;;;;;5053665;28;20198;-85
2023/01/22 09:43:34;;;;;;;43.13;32.03;;;;;;;;;;5070559;28;20205;-83
2023/01/22 09:46:06;;;;;;;130.57;82.40;;;;;;;;;;5062631;28;20307;-82
2023/01/22 09:48:37;;;;;;;83.43;54.30;;;;;;;;;;5071922;28;20205;-83
2023/01/22 09:51:05;;;;;;;11.47;9.53;;;;;;;;;;5072359;28;20263;-81
2023/01/22 09:53:33;;;;;;;6.63;6.13;;;;;;;;;;5053692;28;20588;-89
2023/01/22 09:56:00;;;;;;;31.27;27.73;;;;;;;;;;5070931;28;20209;-83
2023/01/22 09:58:27;;;;;;;19.37;17.53;;;;;;;;;;5062343;28;20240;-84
2023/01/22 10:00:56;;;;;;;7.00;6.37;;;;;;;;;;5056391;28;20205;-84
2023/01/22 10:03:26;;;;;;;22.80;20.50;;;;;;;;;;5059612;28;20268;-84
2023/01/22 10:05:56;;;;;;;5.17;4.77;;;;;;;;;;5058960;28;20263;-83
2023/01/22 10:08:26;;;;;;;5.50;5.00;;;;;;;;;;5072768;28;20236;-84
2023/01/22 10:10:54;;;;;;;8.67;7.93;;;;;;;;;;5046570;28;20573;-83
2023/01/22 10:13:22;;;;;;;18.27;16.77;;;;;;;;;;5057949;28;20217;-84
2023/01/22 10:15:51;;;;;;;5.33;4.83;;;;;;;;;;5065511;28;20213;-83
2023/01/22 10:18:29;;;;;;;8.00;7.43;;;;;;;;;;5053989;28;20214;-84
2023/01/22 10:20:59;;;;;;;9.33;8.53;;;;;;;;;;5063220;28;20209;-84
2023/01/22 10:23:26;;;;;;;17.13;13.63;;;;;;;;;;5055774;28;20197;-85
2023/01/22 10:25:57;;;;;;;35.00;24.70;;;;;;;;;;5062766;28;20233;-84
2023/01/22 10:28:25;;;;;;;25.00;18.33;;;;;;;;;;5052814;28;20194;-83
2023/01/22 10:30:57;;;;;;;35.70;25.33;;;;;;;;;;5062315;28;20255;-84
2023/01/22 10:36:51;;;;;;;12.57;11.30;;;;;;;;;;4972085;28;20266;-84
2023/01/22 10:39:19;;;;;;;9.03;7.33;;;;;;;;;;5065066;28;20208;-83
2023/01/22 10:41:47;;;;;;;11.47;8.40;;;;;;;;;;5065041;28;20206;-83
2023/01/22 10:44:20;;;;;;;21.67;18.03;;;;;;;;;;5053250;28;20213;-84
2023/01/22 10:46:48;;;;;;;19.00;14.73;;;;;;;;;;5071009;28;20232;-84
2023/01/22 10:49:17;;;;;;;16.30;13.73;;;;;;;;;;5069471;28;20209;-84
2023/01/22 10:51:46;;;;;;;11.93;9.70;;;;;;;;;;5051269;28;20738;-84
2023/01/22 10:54:23;;;;;;;7.53;6.60;;;;;;;;;;5051206;28;20206;-84
2023/01/22 10:56:51;;;;;;;38.57;27.23;;;;;;;;;;5063632;28;20263;-84
2023/01/22 10:59:23;;;;;;;38.43;32.30;;;;;;;;;;5053331;28;20241;-83
2023/01/22 11:01:57;;;;;;;11.47;10.27;;;;;;;;;;5052189;28;20201;-84
2023/01/22 11:04:25;;;;;;;7.87;7.07;;;;;;;;;;5037771;28;20209;-84
2023/01/22 11:06:55;;;;;;;5.00;4.60;;;;;;;;;;5051878;28;20233;-85
2023/01/22 11:09:26;;;;;;;16.70;14.80;;;;;;;;;;5051896;28;20271;-84
2023/01/22 11:11:57;;;;;;;26.60;24.07;;;;;;;;;;5050594;28;20197;-84
2023/01/22 11:14:28;;;;;;;28.80;26.33;;;;;;;;;;5052165;28;20205;-83
2023/01/22 11:16:57;;;;;;;66.03;60.17;;;;;;;;;;5064058;28;20638;-83
2023/01/22 11:19:26;;;;;;;64.67;55.77;;;;;;;;;;5051750;28;20210;-84
2023/01/22 11:21:55;;;;;;;28.67;25.30;;;;;;;;;;5043966;28;20214;-83
2023/01/22 11:24:27;;;;;;;9.93;8.93;;;;;;;;;;5052683;28;20683;-83
2023/01/22 11:27:39;;;;;;;15.90;12.77;;;;;;;;;;5052799;28;20652;-83
2023/01/22 11:30:21;;;;;;;15.70;11.97;;;;;;;;;;5054325;28;20680;-83
2023/01/22 11:32:58;;;;;;;10.00;6.40;;;;;;;;;;5064484;28;20205;-84
2023/01/22 11:35:27;;;;;;;3.20;2.90;;;;;;;;;;5060338;28;20232;-83
2023/01/22 11:38:03;;;;;;;2.13;1.87;;;;;;;;;;5057804;28;20252;-84
2023/01/22 11:40:33;;;;;;;4.57;4.17;;;;;;;;;;5060675;28;20201;-83
2023/01/22 11:43:15;;;;;;;2.10;1.90;;;;;;;;;;5051021;28;20201;-83
2023/01/22 11:46:11;;;;;;;6.77;5.43;;;;;;;;;;5050398;28;20564;-83
2023/01/22 11:48:50;;;;;;;9.23;7.87;;;;;;;;;;5042485;28;20610;-83
2023/01/22 11:51:26;;;;;;;8.00;4.00;;;;;;;;;;5050810;28;20202;-83
2023/01/22 11:54:04;;;;;;;17.30;13.67;;;;;;;;;;5030676;28;20237;-84
2023/01/22 11:56:43;;;;;;;8.23;7.53;;;;;;;;;;5050824;28;20205;-83
2023/01/22 11:59:17;;;;;;;4.90;2.73;;;;;;;;;;5054374;28;20240;-82
2023/01/22 12:02:02;;;;;;;1.77;1.67;;;;;;;;;;5070695;28;20203;-83
2023/01/22 12:04:57;;;;;;;1.97;1.77;;;;;;;;;;5042461;28;20216;-83
2023/01/22 12:07:52;;;;;;;9.63;7.20;;;;;;;;;;5048567;28;20226;-83
2023/01/22 12:10:39;;;;;;;6.03;5.43;;;;;;;;;;5048082;28;20737;-83
2023/01/22 12:13:17;;;;;;;3.47;3.03;;;;;;;;;;5050838;28;20217;-84
2023/01/22 12:15:49;;;;;;;2.73;2.30;;;;;;;;;;5064432;28;20604;-83
2023/01/22 12:18:47;;;;;;;3.83;2.13;;;;;;;;;;5064165;28;20209;-88
2023/01/22 12:21:19;;;;;;;2.47;2.27;;;;;;;;;;5017998;28;20209;-82
2023/01/22 12:23:50;;;;;;;3.20;2.30;;;;;;;;;;5070210;28;20618;-85
2023/01/22 12:26:19;;;;;;;4.47;4.13;;;;;;;;;;5057813;28;20657;-86
2023/01/22 12:28:51;;;;;;;3.60;3.40;;;;;;;;;;5061698;28;20205;-86
2023/01/22 12:31:21;;;;;;;4.20;3.70;;;;;;;;;;5056974;28;20271;-83
2023/01/22 12:33:48;;;;;;;4.10;2.73;;;;;;;;;;5061448;28;20197;-82
2023/01/22 12:36:17;;;;;;;3.60;3.30;;;;;;;;;;5056204;28;20255;-83
2023/01/22 12:38:49;;;;;;;24.33;17.10;;;;;;;;;;5057714;28;20675;-82
2023/01/22 12:41:29;;;;;;;34.90;23.83;;;;;;;;;;5061628;28;20256;-82
2023/01/22 12:44:01;;;;;;;15.50;11.53;;;;;;;;;;5043725;28;20755;-83
2023/01/22 12:46:32;;;;;;;11.73;9.70;;;;;;;;;;5050679;28;20766;-83
2023/01/22 12:49:04;;;;;;;10.57;8.33;;;;;;;;;;5036910;28;20205;-83
2023/01/22 12:51:36;;;;;;;13.87;12.37;;;;;;;;;;5050184;28;20206;-83
2023/01/22 12:54:21;;;;;;;12.20;10.43;;;;;;;;;;5057148;28;20201;-83
2023/01/22 12:56:48;;;;;;;17.27;13.63;;;;;;;;;;5059242;28;20628;-85
2023/01/22 12:59:40;;;;;;;13.70;10.57;;;;;;;;;;5054566;28;20255;-83
2023/01/22 13:02:24;;;;;;;7.87;7.07;;;;;;;;;;5057018;28;20210;-83
2023/01/22 13:04:51;;;;;;;6.97;6.27;;;;;;;;;;5059946;28;20217;-83
2023/01/22 13:07:23;;;;;;;9.53;7.50;;;;;;;;;;5067596;28;20225;-82
2023/01/22 13:10:01;;;;;;;32.73;20.47;;;;;;;;;;5059332;28;20256;-84
2023/01/22 13:12:37;;;;;;;102.30;56.47;;;;;;;;;;5057002;28;20644;-83
2023/01/22 13:15:11;;;;;;;54.80;37.83;;;;;;;;;;5059910;28;20270;-84
2023/01/22 13:17:40;;;;;;;15.90;13.13;;;;;;;;;;5065344;28;20202;-83
2023/01/22 13:20:15;;;;;;;24.27;19.70;;;;;;;;;;5054025;28;20600;-82
2023/01/22 13:22:42;;;;;;;10.90;9.17;;;;;;;;;;5053685;28;20680;-83
2023/01/22 13:25:23;;;;;;;9.83;8.30;;;;;;;;;;5054075;28;20213;-82
2023/01/22 13:27:50;;;;;;;9.87;8.67;;;;;;;;;;5053965;28;20324;-83
2023/01/22 13:30:22;;;;;;;5.87;5.30;;;;;;;;;;5053370;28;20205;-83
2023/01/22 13:32:49;;;;;;;21.40;15.07;;;;;;;;;;5052992;28;20202;-82
2023/01/22 13:35:17;;;;;;;8.50;6.87;;;;;;;;;;5053667;28;20218;-81
2023/01/22 13:37:44;;;;;;;19.07;14.13;;;;;;;;;;5053649;28;20709;-83
2023/01/22 13:40:22;;;;;;;27.30;18.13;;;;;;;;;;5059590;28;20213;-82
2023/01/22 13:42:50;;;;;;;18.03;11.43;;;;;;;;;;5060119;28;20205;-83
2023/01/22 13:45:22;;;;;;;11.60;9.30;;;;;;;;;;5072933;28;20274;-84
2023/01/22 13:47:52;;;;;;;8.93;7.27;;;;;;;;;;5057054;28;20225;-83
2023/01/22 13:50:20;;;;;;;10.80;9.20;;;;;;;;;;5053212;28;20297;-83
2023/01/22 13:52:49;;;;;;;15.93;12.17;;;;;;;;;;5054406;28;20202;-83
2023/01/22 13:55:17;;;;;;;8.80;7.90;;;;;;;;;;5054726;28;20567;-82
2023/01/22 13:57:45;;;;;;;11.30;8.47;;;;;;;;;;5064230;28;20224;-86
2023/01/22 14:00:26;;;;;;;5.67;5.07;;;;;;;;;;5061316;28;20256;-86
2023/01/22 14:02:53;;;;;;;10.90;8.63;;;;;;;;;;5059098;28;20212;-85
2023/01/22 14:05:21;;;;;;;18.03;12.13;;;;;;;;;;5057763;28;20194;-84
2023/01/22 14:07:49;;;;;;;9.53;7.03;;;;;;;;;;5055021;28;20688;-86
2023/01/22 14:10:18;;;;;;;15.97;10.30;;;;;;;;;;5059627;28;20197;-85
2023/01/22 14:12:45;;;;;;;6.33;4.87;;;;;;;;;;5054647;28;20198;-86
2023/01/22 14:15:16;;;;;;;2.77;2.27;;;;;;;;;;5052366;28;20218;-86
2023/01/22 14:17:45;;;;;;;2.13;1.93;;;;;;;;;;5066313;28;20338;-85
2023/01/22 14:20:12;;;;;;;3.27;3.07;;;;;;;;;;5060558;28;20205;-86
2023/01/22 14:22:39;;;;;;;16.30;12.07;;;;;;;;;;5056736;28;20260;-85
2023/01/22 14:25:07;;;;;;;9.17;8.27;;;;;;;;;;5054801;28;20205;-86
2023/01/22 14:27:42;;;;;;;14.37;11.30;;;;;;;;;;5085270;28;20226;-85
2023/01/22 14:30:13;;;;;;;39.87;27.43;;;;;;;;;;5079004;28;20240;-85
2023/01/22 14:32:40;;;;;;;57.50;41.43;;;;;;;;;;5072824;28;20207;-85
2023/01/22 14:35:15;;;;;;;18.43;16.40;;;;;;;;;;5073089;28;20237;-85
2023/01/22 14:37:42;;;;;;;9.73;7.97;;;;;;;;;;5053281;28;20213;-85
2023/01/22 14:40:16;;;;;;;4.90;4.03;;;;;;;;;;5052245;28;20210;-84
2023/01/22 14:42:45;;;;;;;5.90;3.90;;;;;;;;;;5040715;28;20228;-84
2023/01/22 14:45:12;;;;;;;6.47;5.80;;;;;;;;;;5052792;28;20701;-85
2023/01/22 14:47:39;;;;;;;8.63;7.10;;;;;;;;;;5064758;28;20249;-84
2023/01/22 14:50:07;;;;;;;8.07;7.27;;;;;;;;;;5053673;28;20210;-85
2023/01/22 14:52:37;;;;;;;7.47;6.77;;;;;;;;;;5063711;28;20275;-84
2023/01/22 14:55:05;;;;;;;5.03;3.70;;;;;;;;;;5062394;28;20676;-84
2023/01/22 14:57:32;;;;;;;6.33;5.57;;;;;;;;;;5068097;28;20218;-84